createdAt,value
2022-10-31T00:02:08.770Z,11.01
2022-10-31T00:04:40.133Z,10.98
2022-10-31T00:07:11.045Z,10.95
2022-10-31T00:09:41.901Z,10.94
2022-10-31T00:12:12.695Z,10.93
2022-10-31T00:14:43.631Z,10.92
2022-10-31T00:17:14.429Z,10.89
2022-10-31T00:19:45.262Z,10.88
2022-10-31T00:22:16.254Z,10.87
2022-10-31T00:24:47.242Z,10.85
2022-10-31T00:27:18.431Z,10.83
2022-10-31T00:29:50.539Z,10.82
2022-10-31T00:32:23.505Z,10.79
2022-10-31T00:34:54.339Z,10.78
2022-10-31T00:37:25.204Z,10.76
2022-10-31T00:39:55.953Z,10.75
2022-10-31T00:42:27.138Z,10.74
2022-10-31T00:44:57.954Z,10.73
2022-10-31T00:47:28.758Z,10.71
2022-10-31T00:49:59.619Z,10.70
2022-10-31T00:52:30.558Z,10.67
2022-10-31T00:55:01.980Z,10.62
2022-10-31T00:57:33.736Z,10.56
2022-10-31T01:00:04.962Z,10.52
2022-10-31T01:02:35.940Z,10.50
2022-10-31T01:05:07.509Z,10.48
2022-10-31T01:07:41.311Z,10.47
2022-10-31T01:10:14.055Z,10.46
2022-10-31T01:12:46.947Z,10.45
2022-10-31T01:15:20.901Z,10.43
2022-10-31T01:17:52.203Z,10.39
2022-10-31T01:20:23.178Z,10.36
2022-10-31T01:22:53.998Z,10.33
2022-10-31T01:25:27.809Z,10.30
2022-10-31T01:27:59.040Z,10.28
2022-10-31T01:30:30.809Z,10.26
2022-10-31T01:33:02.203Z,10.24
2022-10-31T01:35:33.803Z,10.19
2022-10-31T01:38:04.983Z,10.19
2022-10-31T01:40:35.921Z,10.18
2022-10-31T01:43:06.852Z,10.18
2022-10-31T01:45:38.103Z,10.17
2022-10-31T01:48:14.370Z,10.16
2022-10-31T01:50:49.995Z,10.15
2022-10-31T01:53:25.952Z,10.15
2022-10-31T01:55:58.159Z,10.11
2022-10-31T01:58:32.568Z,10.08
2022-10-31T02:01:08.074Z,10.09
2022-10-31T02:03:40.026Z,10.10
2022-10-31T02:06:19.221Z,10.14
2022-10-31T02:08:50.306Z,10.18
2022-10-31T02:11:21.198Z,10.25
2022-10-31T02:13:52.204Z,10.28
2022-10-31T02:16:23.074Z,10.31
2022-10-31T02:18:55.436Z,10.34
2022-10-31T02:21:33.587Z,10.39
2022-10-31T02:24:40.419Z,10.45
2022-10-31T02:27:20.149Z,10.49
2022-10-31T02:30:11.046Z,10.53
2022-10-31T02:33:00.789Z,10.56
2022-10-31T02:35:47.768Z,10.59
2022-10-31T02:38:29.279Z,10.60
2022-10-31T02:41:08.505Z,10.61
2022-10-31T02:43:58.323Z,10.62
2022-10-31T02:46:35.031Z,10.64
2022-10-31T02:49:13.051Z,10.65
2022-10-31T02:51:45.549Z,10.66
2022-10-31T02:54:28.671Z,10.65
2022-10-31T02:57:04.604Z,10.66
2022-10-31T02:59:39.174Z,10.67
2022-10-31T03:02:25.215Z,10.67
2022-10-31T03:05:24.342Z,10.68
2022-10-31T03:08:04.695Z,10.68
2022-10-31T03:10:43.560Z,10.69
2022-10-31T03:15:58.967Z,10.72
2022-10-31T03:18:34.362Z,10.75
2022-10-31T03:21:12.384Z,10.78
2022-10-31T03:23:45.319Z,10.79
2022-10-31T03:26:25.050Z,10.81
2022-10-31T03:28:59.510Z,10.81
2022-10-31T03:31:34.331Z,10.83
2022-10-31T03:34:07.189Z,10.84
2022-10-31T03:36:41.145Z,10.84
2022-10-31T03:39:15.813Z,10.81
2022-10-31T03:41:51.412Z,10.76
2022-10-31T03:44:23.365Z,10.70
2022-10-31T03:47:01.780Z,10.63
2022-10-31T03:49:34.239Z,10.58
2022-10-31T03:52:13.424Z,10.52
2022-10-31T03:54:47.071Z,10.46
2022-10-31T03:57:30.112Z,10.41
2022-10-31T04:00:06.339Z,10.38
2022-10-31T04:02:44.796Z,10.37
2022-10-31T04:05:20.210Z,10.36
2022-10-31T04:07:54.063Z,10.35
2022-10-31T04:10:31.810Z,10.34
2022-10-31T04:13:09.365Z,10.33
2022-10-31T04:15:50.381Z,10.33
2022-10-31T04:18:21.695Z,10.36
2022-10-31T04:21:01.373Z,10.37
2022-10-31T04:23:32.666Z,10.37
2022-10-31T04:26:04.755Z,10.37
2022-10-31T04:28:35.789Z,10.37
2022-10-31T04:31:07.353Z,10.36
2022-10-31T04:33:39.187Z,10.35
2022-10-31T04:36:10.949Z,10.33
2022-10-31T04:38:41.988Z,10.32
2022-10-31T04:41:30.478Z,10.31
2022-10-31T04:44:07.162Z,10.30
2022-10-31T04:46:38.001Z,10.27
2022-10-31T04:49:09.240Z,10.25
2022-10-31T04:51:40.295Z,10.24
2022-10-31T04:54:12.485Z,10.23
2022-10-31T04:57:06.380Z,10.23
2022-10-31T04:59:37.263Z,10.20
2022-10-31T05:02:08.231Z,10.19
2022-10-31T05:04:47.055Z,10.18
2022-10-31T05:07:17.944Z,10.18
2022-10-31T05:09:48.779Z,10.16
2022-10-31T05:12:19.609Z,10.14
2022-10-31T05:15:11.216Z,10.13
2022-10-31T05:18:01.567Z,10.13
2022-10-31T05:20:58.980Z,10.13
2022-10-31T05:23:40.334Z,10.14
2022-10-31T05:26:14.555Z,10.16
2022-10-31T05:28:45.646Z,10.17
2022-10-31T05:31:17.281Z,10.18
2022-10-31T05:33:48.563Z,10.19
2022-10-31T05:36:39.453Z,10.19
2022-10-31T05:39:20.063Z,10.22
2022-10-31T05:41:52.904Z,10.25
2022-10-31T05:44:29.609Z,10.25
2022-10-31T05:47:19.025Z,10.28
2022-10-31T05:50:16.051Z,10.31
2022-10-31T05:52:58.616Z,10.32
2022-10-31T05:55:34.948Z,10.34
2022-10-31T05:58:14.020Z,10.39
2022-10-31T06:00:49.027Z,10.45
2022-10-31T06:03:19.916Z,10.49
2022-10-31T06:06:11.654Z,10.56
2022-10-31T06:08:45.623Z,10.63
2022-10-31T06:11:19.517Z,10.79
2022-10-31T06:14:08.851Z,11.26
2022-10-31T06:16:49.461Z,11.84
2022-10-31T06:19:44.118Z,12.47
2022-10-31T06:22:16.559Z,13.03
2022-10-31T06:24:47.624Z,13.52
2022-10-31T06:27:31.241Z,14.04
2022-10-31T06:30:03.993Z,14.59
2022-10-31T06:32:36.445Z,15.13
2022-10-31T06:35:08.685Z,15.66
2022-10-31T06:37:44.370Z,16.20
2022-10-31T06:40:31.104Z,16.82
2022-10-31T06:43:22.709Z,17.42
2022-10-31T06:45:55.052Z,17.93
2022-10-31T06:48:29.683Z,18.42
2022-10-31T06:51:32.722Z,18.97
2022-10-31T06:54:03.904Z,19.41
2022-10-31T06:56:35.464Z,19.84
2022-10-31T06:59:07.939Z,20.33
2022-10-31T07:02:09.758Z,20.90
2022-10-31T07:04:41.891Z,21.38
2022-10-31T07:07:12.972Z,21.88
2022-10-31T07:09:43.808Z,22.40
2022-10-31T07:12:16.540Z,22.88
2022-10-31T07:14:52.430Z,23.34
2022-10-31T07:17:29.893Z,23.77
2022-10-31T07:20:04.643Z,24.22
2022-10-31T07:22:40.166Z,24.63
2022-10-31T07:25:13.873Z,24.90
2022-10-31T07:28:04.697Z,25.26
2022-10-31T07:30:43.708Z,25.58
2022-10-31T07:33:14.740Z,25.83
2022-10-31T07:36:17.992Z,25.96
2022-10-31T07:39:10.847Z,26.32
2022-10-31T07:42:03.452Z,26.53
2022-10-31T07:44:57.739Z,26.65
2022-10-31T07:48:19.119Z,26.77
2022-10-31T07:51:29.438Z,26.83
2022-10-31T07:54:39.958Z,27.19
2022-10-31T07:57:34.820Z,27.60
2022-10-31T08:00:29.739Z,27.97
2022-10-31T08:03:23.167Z,28.25
2022-10-31T08:06:28.092Z,28.59
2022-10-31T08:09:58.647Z,28.96
2022-10-31T08:13:02.940Z,29.26
2022-10-31T08:15:55.391Z,29.45
2022-10-31T08:18:49.591Z,29.64
2022-10-31T08:21:42.171Z,29.91
2022-10-31T08:24:37.112Z,30.14
2022-10-31T08:27:29.362Z,30.23
2022-10-31T08:30:23.629Z,30.44
2022-10-31T08:33:35.448Z,30.69
2022-10-31T08:36:44.388Z,30.83
2022-10-31T08:39:40.843Z,30.95
2022-10-31T08:42:37.980Z,31.04
2022-10-31T08:45:30.839Z,31.06
2022-10-31T08:48:23.157Z,31.04
2022-10-31T08:51:15.203Z,30.99
2022-10-31T08:53:48.790Z,31.02
2022-10-31T08:56:59.235Z,30.77
2022-10-31T09:00:11.448Z,30.64
2022-10-31T09:03:26.306Z,30.63
2022-10-31T09:06:18.103Z,30.49
2022-10-31T09:09:13.370Z,30.26
2022-10-31T09:12:05.739Z,30.21
2022-10-31T09:15:16.035Z,30.42
2022-10-31T09:18:37.300Z,30.36
2022-10-31T09:21:29.385Z,30.01
2022-10-31T09:24:24.357Z,29.39
2022-10-31T09:27:18.767Z,28.85
2022-10-31T09:30:14.214Z,28.49
2022-10-31T09:33:11.951Z,28.29
2022-10-31T09:36:06.672Z,27.98
2022-10-31T09:38:59.854Z,27.53
2022-10-31T09:42:04.497Z,27.07
2022-10-31T09:45:06.301Z,26.69
2022-10-31T09:48:26.857Z,26.43
2022-10-31T09:51:47.938Z,25.97
2022-10-31T09:54:55.688Z,25.66
2022-10-31T09:57:49.232Z,25.44
2022-10-31T10:00:42.237Z,25.17
2022-10-31T10:03:38.648Z,24.82
2022-10-31T10:06:45.639Z,24.46
2022-10-31T10:10:19.365Z,24.10
2022-10-31T10:13:54.386Z,23.77
2022-10-31T10:17:00.962Z,23.48
2022-10-31T10:20:20.962Z,23.18
2022-10-31T10:23:32.433Z,22.96
2022-10-31T10:29:41.867Z,22.57
2022-10-31T10:32:45.542Z,22.42
2022-10-31T10:35:42.399Z,22.28
2022-10-31T10:38:38.828Z,22.07
2022-10-31T10:41:35.040Z,21.91
2022-10-31T10:44:44.342Z,21.69
2022-10-31T10:47:43.712Z,21.40
2022-10-31T10:50:41.627Z,21.15
2022-10-31T10:54:03.161Z,20.91
2022-10-31T10:57:10.708Z,20.67
2022-10-31T11:00:13.389Z,20.44
2022-10-31T11:03:06.073Z,20.18
2022-10-31T11:06:02.880Z,20.01
2022-10-31T11:08:54.909Z,19.86
2022-10-31T11:12:02.931Z,19.73
2022-10-31T11:15:01.486Z,19.53
2022-10-31T11:17:58.465Z,19.44
2022-10-31T11:20:55.644Z,19.32
2022-10-31T11:23:47.823Z,19.16
2022-10-31T11:26:41.344Z,18.97
2022-10-31T11:29:34.458Z,18.78
2022-10-31T11:32:30.946Z,18.63
2022-10-31T11:35:24.972Z,18.52
2022-10-31T11:38:21.596Z,18.42
2022-10-31T11:41:19.340Z,18.34
2022-10-31T11:44:20.485Z,18.28
2022-10-31T11:47:19.956Z,18.17
2022-10-31T11:50:28.501Z,18.08
2022-10-31T11:53:22.938Z,18.00
2022-10-31T11:56:08.283Z,17.93
2022-10-31T11:58:39.862Z,17.86
2022-10-31T12:01:27.700Z,17.82
2022-10-31T12:04:09.140Z,17.78
2022-10-31T12:06:42.231Z,17.73
2022-10-31T12:09:25.000Z,17.68
2022-10-31T12:12:20.638Z,17.64
2022-10-31T12:15:07.299Z,17.61
2022-10-31T12:17:47.788Z,17.61
2022-10-31T12:20:28.096Z,17.60
2022-10-31T12:23:07.894Z,17.61
2022-10-31T12:25:51.582Z,17.62
2022-10-31T12:28:55.118Z,17.59
2022-10-31T12:31:45.993Z,17.53
2022-10-31T12:34:52.966Z,17.49
2022-10-31T12:38:06.510Z,17.46
2022-10-31T12:41:12.633Z,17.43
2022-10-31T12:44:13.344Z,17.40
2022-10-31T12:47:20.909Z,17.33
2022-10-31T12:50:29.990Z,17.30
2022-10-31T12:53:26.262Z,17.27
2022-10-31T12:56:10.607Z,17.25
2022-10-31T12:58:54.191Z,17.24
2022-10-31T13:01:45.385Z,17.24
2022-10-31T13:04:21.879Z,17.25
2022-10-31T13:06:57.503Z,17.26
2022-10-31T13:09:35.756Z,17.27
2022-10-31T13:12:12.899Z,17.27
2022-10-31T13:14:48.805Z,17.29
2022-10-31T13:17:28.435Z,17.28
2022-10-31T13:20:14.505Z,17.25
2022-10-31T13:22:49.686Z,17.23
2022-10-31T13:25:26.059Z,17.19
2022-10-31T13:28:01.748Z,17.18
2022-10-31T13:30:38.866Z,17.16
2022-10-31T13:33:19.839Z,17.12
2022-10-31T13:36:00.189Z,17.07
2022-10-31T13:38:39.314Z,17.03
2022-10-31T13:41:32.321Z,16.97
2022-10-31T13:44:08.535Z,16.93
2022-10-31T13:46:44.515Z,16.87
2022-10-31T13:49:42.876Z,16.82
2022-10-31T13:52:27.059Z,16.78
2022-10-31T13:54:58.202Z,16.73
2022-10-31T13:57:35.256Z,16.67
2022-10-31T14:00:24.051Z,16.62
2022-10-31T14:02:57.830Z,16.56
2022-10-31T14:05:32.357Z,16.52
2022-10-31T14:08:06.185Z,16.48
2022-10-31T14:10:40.186Z,16.45
2022-10-31T14:13:17.780Z,16.40
2022-10-31T14:16:01.003Z,16.33
2022-10-31T14:18:36.965Z,16.25
2022-10-31T14:21:29.402Z,16.19
2022-10-31T14:24:01.553Z,16.10
2022-10-31T14:26:38.393Z,16.03
2022-10-31T14:29:25.810Z,15.96
2022-10-31T14:32:00.618Z,15.89
2022-10-31T14:34:35.969Z,15.82
2022-10-31T14:37:20.675Z,15.73
2022-10-31T14:40:06.833Z,15.63
2022-10-31T14:42:54.941Z,15.53
2022-10-31T14:45:38.010Z,15.45
2022-10-31T14:48:29.081Z,15.35
2022-10-31T14:51:02.220Z,15.24
2022-10-31T14:53:36.698Z,15.11
2022-10-31T14:56:13.679Z,15.03
2022-10-31T14:58:47.952Z,14.93
2022-10-31T15:01:25.148Z,14.84
2022-10-31T15:06:55.019Z,14.63
2022-10-31T15:09:29.959Z,14.55
2022-10-31T15:12:00.445Z,14.47
2022-10-31T15:14:32.941Z,14.39
2022-10-31T15:17:07.166Z,14.33
2022-10-31T15:19:38.850Z,14.27
2022-10-31T15:22:16.472Z,14.21
2022-10-31T15:24:48.222Z,14.16
2022-10-31T15:27:20.608Z,14.11
2022-10-31T15:29:56.625Z,14.06
2022-10-31T15:32:28.931Z,14.02
2022-10-31T15:35:00.180Z,13.98
2022-10-31T15:37:31.421Z,13.93
2022-10-31T15:40:16.885Z,13.89
2022-10-31T15:42:52.912Z,13.83
2022-10-31T15:45:27.879Z,13.79
2022-10-31T15:48:01.882Z,13.76
2022-10-31T15:50:38.331Z,13.73
2022-10-31T15:53:16.672Z,13.72
2022-10-31T15:55:55.391Z,13.70
2022-10-31T15:58:28.094Z,13.69
2022-10-31T16:01:04.658Z,13.67
2022-10-31T16:03:37.342Z,13.64
2022-10-31T16:06:21.666Z,13.63
2022-10-31T16:08:53.474Z,13.61
2022-10-31T16:11:32.062Z,13.59
2022-10-31T16:14:07.009Z,13.57
2022-10-31T16:16:47.520Z,13.54
2022-10-31T16:19:22.902Z,13.50
2022-10-31T16:21:57.406Z,13.47
2022-10-31T16:24:31.728Z,13.41
2022-10-31T16:27:07.819Z,13.37
2022-10-31T16:29:44.483Z,13.35
2022-10-31T16:32:36.974Z,13.33
2022-10-31T16:35:30.393Z,13.32
2022-10-31T16:38:01.344Z,13.31
2022-10-31T16:40:33.100Z,13.30
2022-10-31T16:43:04.568Z,13.29
2022-10-31T16:45:37.129Z,13.29
2022-10-31T16:48:12.984Z,13.28
2022-10-31T16:50:47.406Z,13.28
2022-10-31T16:53:18.957Z,13.27
2022-10-31T16:55:56.437Z,13.24
2022-10-31T16:58:30.708Z,13.22
2022-10-31T17:01:02.384Z,13.19
2022-10-31T17:03:33.395Z,13.15
2022-10-31T17:06:04.524Z,13.14
2022-10-31T17:08:35.455Z,13.13
2022-10-31T17:11:07.154Z,13.12
2022-10-31T17:13:38.327Z,13.12
2022-10-31T17:16:09.925Z,13.13
2022-10-31T17:18:40.756Z,13.14
2022-10-31T17:21:20.582Z,13.14
2022-10-31T17:23:51.869Z,13.13
2022-10-31T17:26:23.246Z,13.12
2022-10-31T17:28:54.376Z,13.13
2022-10-31T17:31:29.457Z,13.14
2022-10-31T17:34:02.204Z,13.16
2022-10-31T17:36:35.545Z,13.18
2022-10-31T17:39:09.709Z,13.23
2022-10-31T17:41:40.701Z,13.27
2022-10-31T17:44:14.200Z,13.29
2022-10-31T17:46:45.162Z,13.33
2022-10-31T17:49:17.639Z,13.35
2022-10-31T17:51:49.994Z,13.37
2022-10-31T17:54:23.295Z,13.38
2022-10-31T17:56:55.780Z,13.41
2022-10-31T17:59:30.218Z,13.45
2022-10-31T18:02:02.056Z,13.46
2022-10-31T18:04:33.262Z,13.48
2022-10-31T18:07:05.057Z,13.49
2022-10-31T18:09:36.891Z,13.52
2022-10-31T18:12:08.576Z,13.51
2022-10-31T18:14:42.475Z,13.53
2022-10-31T18:17:16.104Z,13.54
2022-10-31T18:19:47.159Z,13.56
2022-10-31T18:22:18.279Z,13.59
2022-10-31T18:25:00.863Z,13.61
2022-10-31T18:27:32.914Z,13.63
2022-10-31T18:30:04.053Z,13.66
2022-10-31T18:32:36.505Z,13.67
2022-10-31T18:35:08.590Z,13.70
2022-10-31T18:37:40.025Z,13.73
2022-10-31T18:40:12.350Z,13.76
2022-10-31T18:42:43.462Z,13.79
2022-10-31T18:45:32.581Z,13.84
2022-10-31T18:48:06.098Z,13.88
2022-10-31T18:50:40.254Z,13.91
2022-10-31T18:53:11.337Z,13.93
2022-10-31T18:55:47.443Z,13.94
2022-10-31T18:58:23.257Z,13.94
2022-10-31T19:00:54.760Z,13.92
2022-10-31T19:03:26.994Z,13.90
2022-10-31T19:05:59.270Z,13.85
2022-10-31T19:08:30.748Z,13.85
2022-10-31T19:11:08.868Z,13.83
2022-10-31T19:13:41.671Z,13.83
2022-10-31T19:16:15.400Z,13.83
2022-10-31T19:18:47.871Z,13.84
2022-10-31T19:21:19.650Z,13.85
2022-10-31T19:23:52.882Z,13.85
2022-10-31T19:26:24.834Z,13.84
2022-10-31T19:28:56.593Z,13.80
2022-10-31T19:31:27.634Z,13.79
2022-10-31T19:33:58.840Z,13.76
2022-10-31T19:36:30.340Z,13.74
2022-10-31T19:39:01.767Z,13.72
2022-10-31T19:41:33.009Z,13.71
2022-10-31T19:44:04.059Z,13.69
2022-10-31T19:46:53.375Z,13.65
2022-10-31T19:49:24.711Z,13.60
2022-10-31T19:51:55.624Z,13.56
2022-10-31T19:54:26.633Z,13.54
2022-10-31T19:56:57.504Z,13.49
2022-10-31T19:59:28.649Z,13.45
2022-10-31T20:01:59.858Z,13.43
2022-10-31T20:04:33.704Z,13.41
2022-10-31T20:07:05.044Z,13.38
2022-10-31T20:09:36.907Z,13.36
2022-10-31T20:12:08.666Z,13.35
2022-10-31T20:14:39.922Z,13.34
2022-10-31T20:17:11.067Z,13.33
2022-10-31T20:19:43.422Z,13.29
2022-10-31T20:22:15.316Z,13.27
2022-10-31T20:24:46.340Z,13.26
2022-10-31T20:27:17.438Z,13.25
2022-10-31T20:29:49.653Z,13.25
2022-10-31T20:32:23.684Z,13.23
2022-10-31T20:34:54.639Z,13.23
2022-10-31T20:37:25.598Z,13.23
2022-10-31T20:39:56.809Z,13.23
2022-10-31T20:42:31.144Z,13.24
2022-10-31T20:45:02.608Z,13.24
2022-10-31T20:47:34.038Z,13.25
2022-10-31T20:50:09.508Z,13.26
2022-10-31T20:52:45.349Z,13.27
2022-10-31T20:55:17.842Z,13.28
2022-10-31T20:57:49.231Z,13.29
2022-10-31T21:00:21.651Z,13.29
2022-10-31T21:02:53.799Z,13.28
2022-10-31T21:05:28.389Z,13.29
2022-10-31T21:08:02.115Z,13.27
2022-10-31T21:10:36.758Z,13.26
2022-10-31T21:13:07.979Z,13.27
2022-10-31T21:15:39.229Z,13.28
2022-10-31T21:18:10.542Z,13.29
2022-10-31T21:20:47.173Z,13.28
2022-10-31T21:23:21.815Z,13.28
2022-10-31T21:25:54.473Z,13.29
2022-10-31T21:28:25.835Z,13.27
2022-10-31T21:30:57.682Z,13.27
2022-10-31T21:33:29.323Z,13.27
2022-10-31T21:36:00.276Z,13.28
2022-10-31T21:38:31.733Z,13.28
2022-10-31T21:41:04.230Z,13.27
2022-10-31T21:43:37.906Z,13.25
2022-10-31T21:46:10.869Z,13.23
2022-10-31T21:48:43.646Z,13.23
2022-10-31T21:51:16.613Z,13.22
2022-10-31T21:54:05.307Z,13.20
2022-10-31T21:56:36.868Z,13.19
2022-10-31T21:59:08.284Z,13.17
2022-10-31T22:01:39.897Z,13.14
2022-10-31T22:04:11.338Z,13.12
2022-10-31T22:06:42.541Z,13.10
2022-10-31T22:09:15.861Z,13.10
2022-10-31T22:11:47.368Z,13.09
2022-10-31T22:14:18.512Z,13.09
2022-10-31T22:16:49.570Z,13.09
2022-10-31T22:19:20.740Z,13.10
2022-10-31T22:21:51.817Z,13.10
2022-10-31T22:24:22.901Z,13.10
2022-10-31T22:26:53.797Z,13.11
2022-10-31T22:29:24.729Z,13.11
2022-10-31T22:31:59.629Z,13.09
2022-10-31T22:34:32.599Z,13.09
2022-10-31T22:37:03.526Z,13.10
2022-10-31T22:39:34.620Z,13.09
2022-10-31T22:42:05.718Z,13.09
2022-10-31T22:44:36.577Z,13.10
2022-10-31T22:47:07.611Z,13.10
2022-10-31T22:49:38.663Z,13.10
2022-10-31T22:52:09.987Z,13.08
2022-10-31T22:54:41.058Z,13.06
2022-10-31T22:57:12.400Z,13.05
2022-10-31T22:59:43.602Z,13.03
2022-10-31T23:02:14.706Z,13.00
2022-10-31T23:04:45.812Z,12.97
2022-10-31T23:07:21.611Z,12.96
2022-10-31T23:09:56.701Z,12.97
2022-10-31T23:12:50.457Z,12.97
2022-10-31T23:15:21.409Z,12.98
2022-10-31T23:17:52.568Z,12.98
2022-10-31T23:20:23.755Z,12.99
2022-10-31T23:22:54.795Z,13.00
2022-10-31T23:25:43.626Z,13.02
2022-10-31T23:28:14.571Z,13.02
2022-10-31T23:30:48.001Z,13.03
2022-10-31T23:33:18.926Z,13.03
2022-10-31T23:35:50.084Z,13.02
2022-10-31T23:38:21.369Z,13.02
2022-10-31T23:40:52.393Z,13.01
2022-10-31T23:43:23.252Z,13.02
2022-10-31T23:45:54.397Z,13.01
2022-10-31T23:48:25.189Z,12.99
2022-10-31T23:50:56.299Z,12.97
2022-10-31T23:53:27.594Z,12.96
2022-10-31T23:55:58.781Z,12.93
2022-10-31T23:58:29.589Z,12.89
